Rembert, South Carolina
Current Conditions -  °F | °C
As of 10:27 AM on Monday 22 Dec 2014 (Local Time) from KSSC Reporting Station
Haze Haze  
Wind Chill: 37°   Ceiling: 500
Heat Index: 43°   Visibility: 4mi
Dew Point: 43°   Wind: 10mph
Humidity: 100%   Direction: 30°NNE
Pressure: 30.1"   Gusts: NA
Location:  34.1°N, 80.53°W
Report Text: KSSC 221527Z 03009KT 4SM BR OVC005 06/06 A3010
Loading
Personal Weather Stations






























Interactive Weather Map New forecast layout! Learn more

10-Day Weather Forecast

Advertisements
Track Severe Weather on mobile